Terminal Aerodrome Forecast
Issued by NWS Charleston, WV

Current Version | Previous Version | Graphics & Text | Print | Product List | Glossary On
Versions: 1 2 3 4 5 6 7 8 9 10 11 12 13 14 15 16 17 18 19 20 21 22 23
000
FTUS41 KRLX 151044 AAA
TAFCRW
TAF AMD
KCRW 151044Z 1511/1606 00000KT P6SM OVC035
     FM151300 00000KT P6SM OVC025
     FM151700 26008KT P6SM BKN040
     FM151900 26009G17KT P6SM BKN040
     FM152200 26009KT P6SM BKN040
     FM160300 26008KT P6SM BKN025
     FM160500 24008KT P6SM SCT050=

USA.gov is the U.S. government's official web portal to all federal, state and local government web resources and services.